Time;durP1;ratioP1;P1;durP2;ratioP2;P2;SDS_P1;SDS_P2;PMS_P1;PMS_P2;Temp;Humidity;BMP_temperature;BMP_pressure;BME280_temperature;BME280_humidity;BME280_pressure;Samples;Min_cycle;Max_cycle;Signal;HPM_P1;HPM_P2
2023/04/15 00:01:28;;;;;;;4.07;2.35;;;;;;;7.29;100.00;99463.28;5024521;28;20070;-76
2023/04/15 00:03:54;;;;;;;3.17;1.92;;;;;;;7.31;100.00;99465.88;5027130;28;20508;-77
2023/04/15 00:06:22;;;;;;;4.38;2.47;;;;;;;7.36;100.00;99459.72;5016174;28;20044;-77
2023/04/15 00:08:49;;;;;;;4.00;2.25;;;;;;;7.36;100.00;99456.22;5024643;28;20042;-76
2023/04/15 00:11:15;;;;;;;3.80;2.42;;;;;;;7.44;100.00;99455.25;5017209;28;20037;-77
2023/04/15 00:13:40;;;;;;;3.45;2.00;;;;;;;7.41;100.00;99459.66;5025108;28;20090;-77
2023/04/15 00:16:07;;;;;;;4.50;2.25;;;;;;;7.40;100.00;99453.53;5024952;28;20034;-77
2023/04/15 00:18:33;;;;;;;3.97;2.20;;;;;;;7.33;100.00;99451.84;5024562;28;20103;-77
2023/04/15 00:20:58;;;;;;;3.10;1.90;;;;;;;7.36;100.00;99454.47;5025159;28;20547;-77
2023/04/15 00:23:23;;;;;;;4.03;2.40;;;;;;;7.33;100.00;99446.59;5028548;28;20484;-77
2023/04/15 00:25:49;;;;;;;3.75;2.25;;;;;;;7.32;100.00;99446.66;5025414;28;20034;-77
2023/04/15 00:28:15;;;;;;;5.45;2.50;;;;;;;7.38;100.00;99442.19;5024029;28;20122;-77
2023/04/15 00:30:41;;;;;;;4.32;2.65;;;;;;;7.47;100.00;99436.84;5026408;28;20435;-76
2023/04/15 00:33:07;;;;;;;3.92;2.15;;;;;;;7.45;100.00;99438.63;5025626;28;20128;-76
2023/04/15 00:35:33;;;;;;;4.57;2.70;;;;;;;7.40;100.00;99431.69;5013639;28;20133;-77
2023/04/15 00:37:58;;;;;;;3.67;2.05;;;;;;;7.43;100.00;99427.25;5016660;28;20029;-76
2023/04/15 00:40:25;;;;;;;3.90;2.33;;;;;;;-145.41;100.00;58600.66;5005353;28;20065;-77
2023/04/15 00:42:51;;;;;;;4.00;2.08;;;;;;;7.46;100.00;99432.47;5016755;28;20045;-76
2023/04/15 00:45:16;;;;;;;4.40;2.53;;;;;;;7.46;100.00;99432.47;5016502;28;20033;-76
2023/04/15 00:47:42;;;;;;;4.57;2.58;;;;;;;7.51;100.00;99428.94;5026219;28;20029;-76
2023/04/15 00:50:09;;;;;;;4.53;1.90;;;;;;;7.56;100.00;99427.13;5022229;28;20034;-77
2023/04/15 00:52:35;;;;;;;4.50;2.63;;;;;;;7.54;100.00;99428.88;5027830;28;20099;-76
2023/04/15 00:55:01;;;;;;;4.95;2.70;;;;;;;7.61;100.00;99430.56;5025877;28;20519;-76
2023/04/15 00:57:27;;;;;;;4.65;2.30;;;;;;;7.65;100.00;99434.88;5005034;28;20044;-76
2023/04/15 00:59:54;;;;;;;3.22;2.03;;;;;;;7.68;100.00;99427.00;5015492;28;20112;-76
2023/04/15 01:02:20;;;;;;;3.78;2.30;;;;;;;7.62;100.00;99424.41;5014143;28;20053;-76
2023/04/15 01:04:46;;;;;;;3.53;2.00;;;;;;;7.56;100.00;99429.75;5031524;28;20504;-77
2023/04/15 01:07:11;;;;;;;4.60;2.50;;;;;;;7.49;100.00;99425.44;5015186;28;20092;-77
2023/04/15 01:09:37;;;;;;;4.13;2.33;;;;;;;7.52;100.00;99425.41;5023156;28;20044;-76
2023/04/15 01:12:03;;;;;;;3.40;1.92;;;;;;;7.53;100.00;99427.16;5025499;28;20037;-77
2023/04/15 01:14:29;;;;;;;4.10;2.58;;;;;;;7.46;100.00;99428.97;5030568;28;20113;-76
2023/04/15 01:16:55;;;;;;;3.80;2.25;;;;;;;7.50;100.00;99425.44;5029142;28;20120;-76
2023/04/15 01:19:20;;;;;;;3.45;1.85;;;;;;;7.49;100.00;99425.44;5028214;28;20098;-77
2023/04/15 01:21:46;;;;;;;4.43;2.75;;;;;;;7.45;100.00;99422.84;5026361;28;20041;-77
2023/04/15 01:24:15;;;;;;;5.07;2.72;;;;;;;7.53;100.00;99416.66;5012784;28;20045;-77
2023/04/15 01:26:40;;;;;;;3.80;2.58;;;;;;;7.52;100.00;99418.44;5025387;28;20041;-77
2023/04/15 01:29:07;;;;;;;4.50;2.50;;;;;;;7.56;100.00;99422.72;5015494;28;20033;-77
2023/04/15 01:31:32;;;;;;;6.30;3.45;;;;;;;7.49;100.00;99415.81;5022497;28;20125;-77
2023/04/15 01:33:58;;;;;;;4.50;2.70;;;;;;;7.55;100.00;99410.50;5025783;28;20080;-77
2023/04/15 01:36:24;;;;;;;4.47;2.40;;;;;;;7.60;100.00;99403.44;5027394;28;20034;-77
2023/04/15 01:38:52;;;;;;;3.83;2.55;;;;;;;7.53;100.00;99407.03;5023994;28;20065;-76
2023/04/15 01:41:24;;;;;;;5.18;2.75;;;;;;;7.58;100.00;99407.84;5023281;28;20511;-76
2023/04/15 01:43:51;;;;;;;5.10;3.20;;;;;;;7.53;100.00;99411.41;5032911;28;20033;-76
2023/04/15 01:46:16;;;;;;;4.85;2.90;;;;;;;-145.41;100.00;58600.66;5014095;28;20029;-76
2023/04/15 01:48:42;;;;;;;4.72;2.92;;;;;;;7.50;100.00;99407.06;5013186;28;20030;-76
2023/04/15 01:51:07;;;;;;;4.45;2.80;;;;;;;7.53;100.00;99411.41;5024159;28;20384;-76
2023/04/15 01:53:33;;;;;;;5.03;2.97;;;;;;;7.62;100.00;99396.44;5013397;28;20041;-76
2023/04/15 01:55:58;;;;;;;6.07;3.38;;;;;;;7.67;100.00;99393.72;5023644;28;20036;-77
2023/04/15 01:58:24;;;;;;;5.15;3.05;;;;;;;7.66;100.00;99392.00;5021417;28;20520;-76
2023/04/15 02:00:49;;;;;;;6.57;3.50;;;;;;;7.61;100.00;99394.66;5021807;28;20041;-76
2023/04/15 02:03:14;;;;;;;4.75;3.00;;;;;;;7.67;100.00;99393.72;5013428;28;20033;-76
2023/04/15 02:05:40;;;;;;;5.43;3.47;;;;;;;7.74;100.00;99390.13;5013203;28;20026;-76
2023/04/15 02:08:05;;;;;;;5.45;3.47;;;;;;;7.74;100.00;99394.53;5021388;28;20511;-76
2023/04/15 02:10:30;;;;;;;5.90;3.85;;;;;;;7.71;100.00;99390.19;5021373;28;20408;-76
2023/04/15 02:12:57;;;;;;;5.18;3.47;;;;;;;7.75;100.00;99385.75;5020885;28;20411;-76
2023/04/15 02:15:26;;;;;;;6.03;3.80;;;;;;;7.71;100.00;99392.81;5014609;28;20108;-76
2023/04/15 02:17:54;;;;;;;5.20;3.22;;;;;;;7.73;100.00;99391.03;5019875;28;20044;-76
2023/04/15 02:20:20;;;;;;;5.30;3.22;;;;;;;7.77;100.00;99390.09;5024430;28;20091;-76
2023/04/15 02:22:47;;;;;;;7.20;3.67;;;;;;;7.78;100.00;99386.59;5024060;28;20036;-76
2023/04/15 02:25:15;;;;;;;5.65;3.63;;;;;;;7.74;100.00;99382.25;5014986;28;20040;-76
2023/04/15 02:27:41;;;;;;;4.97;3.35;;;;;;;7.74;100.00;99387.50;5020607;28;20038;-75
2023/04/15 02:30:07;;;;;;;7.53;4.00;;;;;;;7.75;100.00;99383.97;5014082;28;20034;-76
2023/04/15 02:32:33;;;;;;;5.68;3.70;;;;;;;-145.41;100.00;99383.97;4995795;28;20029;-76
2023/04/15 02:35:04;;;;;;;9.85;4.75;;;;;;;-145.41;100.00;58600.66;5013958;28;20387;-76
2023/04/15 02:37:30;;;;;;;6.85;4.75;;;;;;;7.75;100.00;99383.97;5012666;28;20045;-76
2023/04/15 02:39:56;;;;;;;6.28;3.80;;;;;;;7.79;100.00;99376.94;5012523;28;20123;-76
2023/04/15 02:42:22;;;;;;;8.35;6.07;;;;;;;7.81;100.00;99375.19;5008957;28;20126;-76
2023/04/15 02:44:48;;;;;;;7.22;5.05;;;;;;;7.87;100.00;99383.81;5022796;28;20500;-76
2023/04/15 02:47:14;;;;;;;7.10;4.88;;;;;;;7.85;100.00;99377.72;5020739;28;20041;-76
2023/04/15 02:49:41;;;;;;;6.50;3.85;;;;;;;7.85;100.00;99380.34;5021498;28;20404;-76
2023/04/15 02:52:06;;;;;;;6.68;4.65;;;;;;;7.88;100.00;99379.44;5011827;28;20029;-76
2023/04/15 02:54:32;;;;;;;6.45;4.50;;;;;;;7.92;100.00;99382.91;5022709;28;20488;-76
2023/04/15 02:56:58;;;;;;;5.97;4.10;;;;;;;7.94;100.00;99373.22;5026234;28;20065;-76
2023/04/15 02:59:24;;;;;;;9.27;5.47;;;;;;;7.90;100.00;99383.78;5010951;28;20421;-77
2023/04/15 03:01:49;;;;;;;9.43;5.47;;;;;;;7.89;100.00;99374.16;5024886;28;20037;-76
2023/04/15 03:04:15;;;;;;;9.15;4.75;;;;;;;7.89;100.00;99378.56;5021750;28;20511;-76
2023/04/15 03:06:40;;;;;;;9.07;5.25;;;;;;;7.96;100.00;99379.34;5002808;28;20034;-76
2023/04/15 03:09:08;;;;;;;8.55;6.40;;;;;;;8.01;100.00;99382.75;5023547;28;20033;-76
2023/04/15 03:11:39;;;;;;;9.55;5.90;;;;;;;8.06;100.00;99376.53;5022279;28;20372;-76
2023/04/15 03:14:06;;;;;;;9.50;6.50;;;;;;;8.10;100.00;99380.03;5008226;28;20030;-76
2023/04/15 03:16:34;;;;;;;8.45;5.68;;;;;;;8.11;100.00;99373.88;5021164;28;20038;-76
2023/04/15 03:18:59;;;;;;;9.05;6.18;;;;;;;8.16;100.00;99374.66;5025787;28;20041;-76
2023/04/15 03:21:25;;;;;;;8.88;5.65;;;;;;;8.17;100.00;99375.53;5011743;28;20459;-76
2023/04/15 03:23:51;;;;;;;8.23;6.20;;;;;;;8.18;100.00;99377.28;5012158;28;20040;-76
2023/04/15 03:26:27;;;;;;;9.48;6.55;;;;;;;-145.41;100.00;99377.28;5019810;28;20037;-76
2023/04/15 03:28:56;;;;;;;8.55;5.68;;;;;;;8.18;100.00;99377.28;5011111;28;20120;-76
2023/04/15 03:31:21;;;;;;;11.10;7.18;;;;;;;8.20;100.00;99376.38;5011311;28;20030;-76
2023/04/15 03:33:47;;;;;;;10.18;6.85;;;;;;;8.19;100.00;99371.13;5023365;28;20117;-76
2023/04/15 03:36:12;;;;;;;10.20;6.97;;;;;;;8.18;100.00;99365.00;5019540;28;20038;-76
2023/04/15 03:38:38;;;;;;;12.30;8.88;;;;;;;8.15;100.00;99362.44;5026603;28;20647;-77
2023/04/15 03:41:03;;;;;;;13.02;9.32;;;;;;;8.13;100.00;99366.84;5026664;28;20112;-76
2023/04/15 03:43:29;;;;;;;11.85;8.55;;;;;;;8.19;100.00;99364.09;5018587;28;20095;-76
2023/04/15 03:45:54;;;;;;;13.38;9.35;;;;;;;8.13;100.00;99354.56;5022999;28;20077;-76
2023/04/15 03:48:20;;;;;;;16.00;9.02;;;;;;;8.11;100.00;99360.72;5016240;28;20030;-76
2023/04/15 03:50:45;;;;;;;12.65;9.25;;;;;;;8.14;100.00;99363.28;5028444;28;20492;-76
2023/04/15 03:53:10;;;;;;;17.42;11.27;;;;;;;8.20;100.00;99368.47;5028607;28;20036;-76
2023/04/15 03:55:36;;;;;;;16.63;11.10;;;;;;;8.18;100.00;99358.88;5024054;28;20021;-76
2023/04/15 03:58:01;;;;;;;17.98;11.82;;;;;;;8.15;100.00;99367.69;5023070;28;20073;-76
2023/04/15 04:00:27;;;;;;;14.82;10.38;;;;;;;8.20;100.00;99363.22;5019719;28;20511;-76
2023/04/15 04:02:52;;;;;;;15.38;11.00;;;;;;;8.22;100.00;99368.44;5029690;28;20049;-76
2023/04/15 04:05:18;;;;;;;13.93;10.80;;;;;;;8.21;100.00;99367.59;5023009;28;20038;-76
2023/04/15 04:07:43;;;;;;;21.40;14.02;;;;;;;8.24;100.00;99369.28;5021817;28;20121;-76
2023/04/15 04:10:09;;;;;;;20.30;13.30;;;;;;;8.23;100.00;99367.56;5022846;28;20092;-76
2023/04/15 04:12:34;;;;;;;27.00;16.65;;;;;;;8.26;100.00;99365.75;5018915;28;20049;-76
2023/04/15 04:14:59;;;;;;;24.73;15.82;;;;;;;8.28;100.00;99371.00;5021861;28;20442;-77
2023/04/15 04:17:24;;;;;;;22.45;14.07;;;;;;;8.38;100.00;99371.69;5022853;28;20439;-76
2023/04/15 04:19:50;;;;;;;21.00;15.13;;;;;;;8.41;100.00;99367.31;5024037;28;20037;-77
2023/04/15 04:22:15;;;;;;;18.83;13.45;;;;;;;8.37;100.00;99375.22;5025271;28;20447;-76
2023/04/15 04:24:40;;;;;;;24.25;16.25;;;;;;;8.37;100.00;99372.59;5020468;28;20516;-77
2023/04/15 04:27:06;;;;;;;19.35;14.20;;;;;;;8.41;100.00;99369.06;5024912;28;20041;-76
2023/04/15 04:29:31;;;;;;;20.75;14.57;;;;;;;8.46;100.00;99369.84;5023150;28;20034;-77
2023/04/15 04:31:56;;;;;;;21.48;15.40;;;;;;;8.47;100.00;99371.59;5021156;28;20037;-77
2023/04/15 04:34:22;;;;;;;24.88;16.95;;;;;;;8.48;100.00;99376.81;5021568;28;20029;-77
2023/04/15 04:36:47;;;;;;;30.45;20.00;;;;;;;8.53;100.00;99376.75;5022860;28;20049;-77
2023/04/15 04:39:12;;;;;;;26.08;17.05;;;;;;;8.53;100.00;99371.50;5026990;28;20041;-77
2023/04/15 04:41:38;;;;;;;28.08;18.27;;;;;;;8.52;100.00;99372.41;5025668;28;20088;-77
2023/04/15 04:44:03;;;;;;;28.13;19.45;;;;;;;8.55;100.00;99369.72;5023894;28;20041;-77
2023/04/15 04:46:28;;;;;;;30.40;20.05;;;;;;;8.58;100.00;99374.06;5032161;28;20045;-77
2023/04/15 04:48:54;;;;;;;27.95;18.50;;;;;;;8.60;100.00;99367.88;5028345;28;20034;-77
2023/04/15 04:51:20;;;;;;;27.63;19.25;;;;;;;8.61;100.00;99364.34;5029020;28;20044;-77
2023/04/15 04:53:45;;;;;;;31.38;20.60;;;;;;;8.65;100.00;99366.03;5024809;28;20042;-77
2023/04/15 04:56:10;;;;;;;32.15;22.17;;;;;;;8.74;100.00;99365.00;5027312;28;20041;-77
2023/04/15 04:58:37;;;;;;;27.83;20.30;;;;;;;8.81;100.00;99360.50;5029882;28;20037;-77
2023/04/15 05:01:02;;;;;;;33.33;21.65;;;;;;;8.79;100.00;99360.53;5025928;28;20650;-77
2023/04/15 05:03:28;;;;;;;26.30;19.30;;;;;;;8.84;100.00;99361.31;5014405;28;20120;-77
2023/04/15 05:05:53;;;;;;;35.15;22.75;;;;;;;8.85;100.00;99364.81;5026454;28;20047;-77
2023/04/15 05:08:19;;;;;;;39.53;24.83;;;;;;;8.88;100.00;99351.59;5025837;28;20046;-77
2023/04/15 05:10:45;;;;;;;28.35;21.52;;;;;;;8.98;100.00;99358.44;5023953;28;20084;-77
2023/04/15 05:13:11;;;;;;;30.02;20.48;;;;;;;8.97;100.00;99361.97;5020676;28;20100;-77
2023/04/15 05:15:38;;;;;;;36.15;21.63;;;;;;;8.97;100.00;99354.06;5024493;28;20044;-77
2023/04/15 05:18:03;;;;;;;33.95;23.58;;;;;;;8.97;100.00;99354.06;5021960;28;20046;-77
2023/04/15 05:20:29;;;;;;;35.25;24.23;;;;;;;9.10;100.00;99363.47;5025488;28;20087;-77
2023/04/15 05:22:54;;;;;;;32.72;22.67;;;;;;;-145.41;100.00;99363.47;5021855;28;20092;-77
2023/04/15 05:25:20;;;;;;;33.35;23.23;;;;;;;9.10;100.00;99363.47;5024070;28;20038;-77
2023/04/15 05:27:45;;;;;;;32.75;23.05;;;;;;;9.10;100.00;99363.47;5027674;28;20037;-77
2023/04/15 05:30:10;;;;;;;38.22;25.80;;;;;;;9.10;100.00;99363.47;5025638;28;20484;-77
2023/04/15 05:32:36;;;;;;;36.05;23.70;;;;;;;10.33;100.00;75553.47;5025453;28;20040;-77
2023/04/15 05:35:01;;;;;;;38.42;25.45;;;;;;;9.10;100.00;99363.47;5025482;28;20033;-77
2023/04/15 05:37:27;;;;;;;34.22;23.80;;;;;;;-145.41;nan;58600.66;5023414;28;20044;-77
2023/04/15 05:39:52;;;;;;;31.05;22.08;;;;;;;9.10;100.00;99363.47;5028680;28;20051;-77
2023/04/15 05:42:17;;;;;;;34.72;23.10;;;;;;;9.57;100.00;99364.31;5021429;28;20037;-77
2023/04/15 05:44:43;;;;;;;31.83;22.77;;;;;;;-145.41;nan;58600.66;5024750;28;20411;-77
2023/04/15 05:47:09;;;;;;;32.92;23.25;;;;;;;9.57;100.00;99364.31;5021980;28;20471;-77
2023/04/15 05:49:35;;;;;;;37.20;25.83;;;;;;;-145.41;100.00;99364.31;5024918;28;20034;-77
2023/04/15 05:52:00;;;;;;;33.70;24.33;;;;;;;9.57;100.00;99364.31;5021257;28;20392;-77
2023/04/15 05:54:26;;;;;;;32.22;23.10;;;;;;;9.57;100.00;99364.31;5029736;28;20041;-77
2023/04/15 05:56:52;;;;;;;37.63;24.92;;;;;;;9.57;100.00;99364.31;5028927;28;20639;-77
2023/04/15 05:59:17;;;;;;;31.88;22.73;;;;;;;9.89;100.00;99378.56;5025822;28;20033;-77
2023/04/15 06:01:43;;;;;;;30.88;21.98;;;;;;;9.89;100.00;99378.56;5028100;28;20396;-76
2023/04/15 06:04:10;;;;;;;33.35;24.08;;;;;;;9.89;100.00;99378.56;5030467;28;20051;-77
2023/04/15 06:06:37;;;;;;;32.67;22.33;;;;;;;9.89;100.00;99378.56;5023484;28;20061;-77
2023/04/15 06:09:02;;;;;;;29.85;22.73;;;;;;;9.89;100.00;99378.56;5022735;28;20040;-76
2023/04/15 06:11:28;;;;;;;29.67;21.60;;;;;;;9.89;100.00;99378.56;5085393;22;20511;-79
2023/04/15 06:13:53;;;;;;;31.20;22.88;;;;;;;10.13;100.00;99389.47;5044174;28;20044;-79
2023/04/15 06:16:18;;;;;;;29.10;22.35;;;;;;;10.13;100.00;99389.47;5045652;28;20502;-79
2023/04/15 06:18:44;;;;;;;30.10;22.33;;;;;;;10.13;100.00;99389.47;5046051;28;20037;-79
2023/04/15 06:21:09;;;;;;;29.25;22.08;;;;;;;10.13;100.00;99389.47;5036541;28;20078;-79
2023/04/15 06:23:35;;;;;;;26.92;21.23;;;;;;;10.13;100.00;99389.47;5030052;28;20124;-79
2023/04/15 06:26:01;;;;;;;30.17;21.70;;;;;;;10.13;100.00;99389.47;5029348;28;20045;-79
2023/04/15 06:28:26;;;;;;;33.33;24.45;;;;;;;10.13;100.00;99389.47;5028510;28;20083;-79
2023/04/15 06:30:52;;;;;;;32.80;24.20;;;;;;;10.13;100.00;99389.47;5016769;28;20091;-79
2023/04/15 06:33:17;;;;;;;32.65;23.52;;;;;;;10.13;100.00;99389.47;5023657;28;20037;-80
2023/04/15 06:35:42;;;;;;;29.95;21.63;;;;;;;10.13;100.00;99389.47;5026790;28;20093;-80
2023/04/15 06:38:08;;;;;;;28.85;21.33;;;;;;;10.13;100.00;99389.47;5022405;28;20038;-79
2023/04/15 06:40:33;;;;;;;28.65;20.55;;;;;;;10.13;100.00;99389.47;5031142;28;20034;-80
2023/04/15 06:42:59;;;;;;;30.65;21.45;;;;;;;10.13;100.00;99389.47;5031714;28;20045;-79
2023/04/15 06:45:24;;;;;;;26.63;20.58;;;;;;;10.13;100.00;99389.47;5028216;28;20524;-79
2023/04/15 06:47:49;;;;;;;27.92;22.00;;;;;;;10.41;100.00;99398.50;5027653;28;20087;-80
2023/04/15 06:50:15;;;;;;;30.20;22.73;;;;;;;10.41;100.00;99398.50;5024176;28;20034;-79
2023/04/15 06:52:40;;;;;;;25.88;21.58;;;;;;;10.45;100.00;99405.47;5030382;28;20037;-79
2023/04/15 06:55:06;;;;;;;29.42;21.92;;;;;;;10.53;100.00;99397.31;5027796;28;20044;-79
2023/04/15 06:57:32;;;;;;;28.15;20.48;;;;;;;10.53;100.00;99397.31;5028204;28;20067;-80
2023/04/15 06:59:57;;;;;;;26.92;20.23;;;;;;;10.53;100.00;99397.31;5023171;28;20419;-79
2023/04/15 07:02:23;;;;;;;27.90;22.20;;;;;;;10.53;100.00;99397.31;5026556;28;20037;-79
2023/04/15 07:04:48;;;;;;;26.02;20.42;;;;;;;10.64;100.00;99413.78;5017988;28;20117;-79
2023/04/15 07:07:14;;;;;;;27.90;22.23;;;;;;;10.56;100.00;99414.84;5027223;28;20041;-79
2023/04/15 07:09:39;;;;;;;26.08;21.67;;;;;;;10.60;100.00;99427.09;5014644;28;20049;-79
2023/04/15 07:12:04;;;;;;;29.83;21.95;;;;;;;10.62;100.00;99420.88;5029633;28;20037;-79
2023/04/15 07:14:30;;;;;;;28.02;21.67;;;;;;;10.62;100.00;99420.88;5026446;28;20030;-80
2023/04/15 07:16:56;;;;;;;26.63;20.40;;;;;;;10.62;100.00;99420.88;5008616;28;20542;-78
2023/04/15 07:19:22;;;;;;;27.85;22.05;;;;;;;10.67;100.00;99421.63;5005871;28;20030;-79
2023/04/15 07:21:48;;;;;;;28.02;21.02;;;;;;;10.67;100.00;99421.63;5025785;28;20064;-79
2023/04/15 07:24:16;;;;;;;29.63;21.40;;;;;;;10.70;100.00;99418.03;5024667;28;20037;-79
2023/04/15 07:26:43;;;;;;;26.90;21.50;;;;;;;10.70;100.00;99418.03;5029742;28;20450;-79
2023/04/15 07:29:08;;;;;;;27.42;20.77;;;;;;;10.69;100.00;99432.16;5028494;28;20029;-78
2023/04/15 07:31:35;;;;;;;27.30;20.23;;;;;;;10.68;100.00;99433.91;5026810;28;20033;-80
2023/04/15 07:34:01;;;;;;;24.75;20.30;;;;;;;10.68;100.00;99433.91;5023997;28;20048;-79
2023/04/15 07:36:28;;;;;;;23.05;17.98;;;;;;;10.72;100.00;99442.63;5029141;28;20029;-80
2023/04/15 07:38:54;;;;;;;22.77;18.20;;;;;;;10.72;100.00;99442.63;5028254;28;20099;-80
2023/04/15 07:41:19;;;;;;;22.55;17.48;;;;;;;10.76;100.00;99441.63;5028491;28;20119;-80
2023/04/15 07:43:45;;;;;;;20.38;15.70;;;;;;;10.83;100.00;99434.44;5031735;28;20483;-78
2023/04/15 07:46:10;;;;;;;22.25;16.35;;;;;;;10.85;100.00;99422.94;5004402;28;20112;-79
2023/04/15 07:48:36;;;;;;;20.50;16.23;;;;;;;10.81;100.00;99442.41;5032529;28;20034;-79
2023/04/15 07:51:02;;;;;;;17.27;14.88;;;;;;;10.83;100.00;99435.31;5033066;28;20083;-79
2023/04/15 07:53:27;;;;;;;17.25;15.13;;;;;;;10.82;100.00;99444.16;5026899;28;20120;-78
2023/04/15 07:55:53;;;;;;;17.73;13.85;;;;;;;10.84;100.00;99444.94;5026743;28;20030;-78
2023/04/15 07:58:18;;;;;;;18.25;14.10;;;;;;;10.93;100.00;99446.53;5024015;28;20151;-76
2023/04/15 08:00:43;;;;;;;16.38;12.93;;;;;;;10.90;100.00;99455.38;5011522;28;20038;-79
2023/04/15 08:03:08;;;;;;;15.70;12.55;;;;;;;10.99;100.00;99451.63;5030814;28;20079;-79
2023/04/15 08:05:34;;;;;;;14.18;11.55;;;;;;;11.07;100.00;99459.38;5028665;28;20045;-79
2023/04/15 08:08:00;;;;;;;15.45;12.05;;;;;;;11.13;100.00;99459.19;5031873;28;20108;-79
2023/04/15 08:10:25;;;;;;;14.02;11.82;;;;;;;11.26;100.00;99459.75;5016667;28;20034;-78
2023/04/15 08:12:53;;;;;;;12.68;10.57;;;;;;;11.33;100.00;99456.91;5028738;28;20080;-78
2023/04/15 08:15:19;;;;;;;11.77;9.90;;;;;;;11.36;100.00;99459.47;5024665;28;20034;-78
2023/04/15 08:17:44;;;;;;;12.68;10.15;;;;;;;11.38;100.00;99462.09;5015038;28;20117;-76
2023/04/15 08:20:10;;;;;;;10.43;9.32;;;;;;;11.40;100.00;99457.63;5026893;28;20073;-75
2023/04/15 08:22:35;;;;;;;12.23;10.00;;;;;;;11.30;100.00;99462.28;5032425;28;20044;-77
2023/04/15 08:25:01;;;;;;;13.15;11.52;;;;;;;11.32;100.00;99459.63;5028534;28;20029;-76
2023/04/15 08:27:26;;;;;;;12.45;9.73;;;;;;;11.36;100.00;99466.53;5024744;28;20135;-76
2023/04/15 08:29:51;;;;;;;13.23;9.82;;;;;;;11.36;100.00;99466.53;5027519;28;20041;-77
2023/04/15 08:32:17;;;;;;;10.75;8.27;;;;;;;11.36;100.00;99466.53;5026845;28;20037;-77
2023/04/15 08:34:43;;;;;;;11.10;9.18;;;;;;;11.36;100.00;99466.53;5026265;28;20037;-77
2023/04/15 08:37:08;;;;;;;10.80;8.10;;;;;;;11.42;100.00;99476.94;5025865;28;20385;-76
2023/04/15 08:39:34;;;;;;;10.20;8.45;;;;;;;11.49;100.00;99475.00;5025359;28;20026;-77
2023/04/15 08:42:06;;;;;;;13.25;10.02;;;;;;;11.49;100.00;99475.00;5028072;28;20685;-76
2023/04/15 08:44:35;;;;;;;12.98;9.60;;;;;;;11.51;100.00;99481.13;5028232;28;20033;-77
2023/04/15 08:47:02;;;;;;;11.57;8.82;;;;;;;11.58;100.00;99485.31;5029243;28;20033;-76
2023/04/15 08:49:28;;;;;;;11.35;8.30;;;;;;;-145.41;100.00;58600.66;5023595;28;20038;-77
2023/04/15 08:51:55;;;;;;;10.85;7.88;;;;;;;11.58;100.00;99485.31;5026832;28;20037;-76
2023/04/15 08:54:20;;;;;;;9.18;7.38;;;;;;;-145.41;nan;58600.66;5023639;28;20026;-76
2023/04/15 08:56:47;;;;;;;9.35;6.35;;;;;;;11.58;100.00;99485.31;5026387;28;20506;-77
2023/04/15 08:59:13;;;;;;;10.02;7.50;;;;;;;11.58;100.00;99485.31;5022539;28;20049;-76
2023/04/15 09:01:39;;;;;;;8.75;6.35;;;;;;;-145.41;100.00;58600.66;5026851;28;20546;-77
2023/04/15 09:04:06;;;;;;;8.57;6.10;;;;;;;11.58;100.00;99485.31;5027596;28;20381;-76
2023/04/15 09:06:32;;;;;;;8.52;6.22;;;;;;;11.58;100.00;99485.31;5022037;28;20042;-77
2023/04/15 09:08:58;;;;;;;8.20;5.80;;;;;;;11.58;100.00;99485.31;5023301;28;20037;-77
2023/04/15 09:11:23;;;;;;;8.50;6.25;;;;;;;;;;5026395;28;20052;-76
2023/04/15 09:13:49;;;;;;;8.52;6.15;;;;;;;-145.41;nan;58600.66;5028584;28;20554;-77
2023/04/15 09:16:14;;;;;;;7.20;5.68;;;;;;;-145.41;100.00;58600.66;5025658;28;20030;-76
2023/04/15 09:18:40;;;;;;;7.60;5.32;;;;;;;-145.41;100.00;58600.66;5023896;28;20068;-77
2023/04/15 09:21:07;;;;;;;7.70;5.35;;;;;;;-145.41;100.00;58600.66;5027440;28;20052;-76
2023/04/15 09:23:34;;;;;;;6.03;4.47;;;;;;;-145.41;100.00;58600.66;5030084;28;20038;-76
2023/04/15 09:26:01;;;;;;;6.35;4.13;;;;;;;-145.41;100.00;58600.66;5026959;28;20042;-77
2023/04/15 09:28:27;;;;;;;4.88;3.40;;;;;;;-145.41;100.00;58600.66;5006980;28;20091;-77
2023/04/15 09:30:57;;;;;;;7.25;4.30;;;;;;;-145.41;100.00;58600.66;5028692;28;20516;-77
2023/04/15 09:33:23;;;;;;;6.47;4.13;;;;;;;-145.41;100.00;58600.66;5023438;28;20115;-76
2023/04/15 09:36:04;;;;;;;6.95;4.90;;;;;;;-145.41;100.00;58600.66;5025381;28;20069;-76
2023/04/15 09:38:30;;;;;;;6.85;5.47;;;;;;;-145.41;100.00;58600.66;5022888;28;20412;-77
2023/04/15 09:40:56;;;;;;;6.85;4.72;;;;;;;-145.41;100.00;112856.63;5032976;28;20547;-77
2023/04/15 09:43:35;;;;;;;7.53;5.35;;;;;;;11.58;100.00;99485.31;5030255;28;20032;-77
2023/04/15 09:46:01;;;;;;;6.15;4.55;;;;;;;11.61;100.00;99559.25;5016114;28;20669;-77
2023/04/15 09:48:26;;;;;;;5.72;4.43;;;;;;;11.62;100.00;99561.84;5031333;28;20087;-77
2023/04/15 09:50:52;;;;;;;7.43;4.28;;;;;;;11.62;100.00;99561.84;5013528;28;20492;-77
2023/04/15 09:53:22;;;;;;;6.00;4.40;;;;;;;11.62;100.00;99561.84;5029942;28;20076;-77
2023/04/15 09:55:54;;;;;;;6.28;4.43;;;;;;;11.62;100.00;99561.84;5027907;28;20068;-77
2023/04/15 09:58:27;;;;;;;5.30;3.65;;;;;;;11.62;100.00;99561.84;5026551;28;20035;-76
2023/04/15 10:00:55;;;;;;;4.78;3.30;;;;;;;11.62;100.00;99561.84;5029305;28;20439;-77
2023/04/15 10:03:26;;;;;;;5.40;3.45;;;;;;;11.62;100.00;99561.84;5025386;28;20041;-77
2023/04/15 10:05:54;;;;;;;7.10;2.97;;;;;;;11.62;100.00;99561.84;5008776;28;20129;-77
2023/04/15 10:08:22;;;;;;;4.53;3.10;;;;;;;11.49;100.00;99594.75;5033012;28;20041;-77
2023/04/15 10:10:48;;;;;;;3.63;2.03;;;;;;;11.41;100.00;99588.81;5025530;28;20496;-76
2023/04/15 10:13:16;;;;;;;2.63;1.63;;;;;;;11.48;100.00;99592.19;5027612;28;20108;-76
2023/04/15 10:15:56;;;;;;;3.13;2.05;;;;;;;11.44;100.00;99593.16;5023903;28;20044;-76
2023/04/15 10:18:26;;;;;;;3.53;2.05;;;;;;;11.40;100.00;99587.09;5026419;28;20590;-77
2023/04/15 10:20:53;;;;;;;3.10;1.70;;;;;;;11.36;100.00;99591.56;5022697;28;20435;-77
2023/04/15 10:23:19;;;;;;;2.92;1.83;;;;;;;11.46;100.00;99594.84;5026704;28;20033;-77
2023/04/15 10:25:45;;;;;;;2.85;1.80;;;;;;;11.55;100.00;99604.31;5024476;28;20520;-77
2023/04/15 10:28:11;;;;;;;3.30;1.70;;;;;;;11.64;100.00;99598.81;5024947;28;20080;-76
2023/04/15 10:30:37;;;;;;;3.35;1.95;;;;;;;11.73;100.00;99609.13;5022590;28;20025;-77
2023/04/15 10:33:04;;;;;;;4.03;1.60;;;;;;;11.67;100.00;99609.31;5012605;28;20048;-76
2023/04/15 10:35:31;;;;;;;3.47;1.60;;;;;;;11.61;100.00;99612.97;5023587;28;20034;-77
2023/04/15 10:37:57;;;;;;;2.50;1.50;;;;;;;11.68;100.00;99611.03;5025034;28;20041;-76
2023/04/15 10:40:30;;;;;;;3.53;1.90;;;;;;;11.73;100.00;99614.41;5031926;28;20032;-76
2023/04/15 10:43:02;;;;;;;3.33;1.75;;;;;;;11.87;100.00;99610.59;5029889;28;20033;-78
2023/04/15 10:45:32;;;;;;;2.60;1.40;;;;;;;11.86;100.00;99612.38;5027466;28;20116;-78
2023/04/15 10:48:01;;;;;;;2.92;1.52;;;;;;;11.80;100.00;99621.28;5026757;28;20334;-78
2023/04/15 10:50:28;;;;;;;2.63;1.30;;;;;;;11.90;100.00;99621.09;5027047;28;20033;-78
2023/04/15 10:52:55;;;;;;;2.42;1.25;;;;;;;12.02;100.00;99618.13;5005888;28;20038;-78
2023/04/15 10:55:26;;;;;;;2.90;1.50;;;;;;;12.08;100.00;99628.56;5027563;28;20029;-77
2023/04/15 10:57:59;;;;;;;2.30;1.30;;;;;;;12.03;100.00;99623.38;5026242;28;20510;-78
2023/04/15 11:00:28;;;;;;;3.55;1.35;;;;;;;12.04;100.00;99625.09;5008149;28;20044;-78
2023/04/15 11:02:55;;;;;;;3.20;1.20;;;;;;;12.17;100.00;99625.66;5023950;28;20512;-78
2023/04/15 11:05:22;;;;;;;2.90;1.23;;;;;;;12.39;100.00;99625.94;5026048;28;20080;-78
2023/04/15 11:07:54;;;;;;;1.95;1.05;;;;;;;12.53;100.00;99630.84;5022948;28;20037;-78
2023/04/15 11:10:20;;;;;;;;;;;;;;;12.59;100.00;99638.59;5022941;28;20052;-78
2023/04/15 11:13:06;;;;;;;1.65;0.70;;;;;;;12.57;100.00;99639.53;5026504;28;19917;-78
2023/04/15 11:15:34;;;;;;;1.55;0.90;;;;;;;12.62;100.00;99634.97;5013544;28;20107;-77
2023/04/15 11:18:10;;;;;;;1.83;1.00;;;;;;;12.88;100.00;99645.69;5022472;28;20053;-78